aviador You're here:

LFKC Decoded Metar

CALVI in CORSE ISL.
Report Time2017-12-16 16:30:00
UTC Time2017-12-16 16:45:07
Flight Rules vfr VFR
Wind200° at 07 kt
W.Decomp.*RWY 18: 6.6 kt HW 2.3 kt RCW
W.Rank200° ranks 1
Current wind is below 200° avg. (9.1)
Visibility9999 m
Phenomena:N/A
Clouds:Few 039 Hf
Scattered 046 Hf
Expected CloudBase > 1,600 ft AGL from Temp-Dew spread
CeilingNone
Temp06°C (ISA -9)
Dew Point02°C (76% RH)
AAT1.8°C
QNH1010 hPa
Density Alt-650 ft
Elevation190 ft
Report Wrong Elevation
Raw Report
LFKC 161630Z AUTO 20007KT 9999 FEW039 SCT046 06/02 Q1010 NOSIG=

Extra information for LFKC:More info

Metar Taf Metar & Taf Last 4 Metars F.Rules Stats Wind Profile Meteogram Temp Stats Airport Information Weather charts Add Link Nearby VenuesMetar ALERT Operation Metar Decoded Social comments